createdAt,value
2023-05-04T00:00:17.574Z,0.00
2023-05-04T00:01:17.571Z,0.00
2023-05-04T00:02:17.621Z,0.00
2023-05-04T00:03:17.648Z,0.00
2023-05-04T00:04:17.568Z,0.00
2023-05-04T00:05:17.517Z,0.00
2023-05-04T00:06:17.510Z,0.00
2023-05-04T00:07:17.513Z,0.00
2023-05-04T00:08:17.503Z,0.00
2023-05-04T00:09:17.475Z,0.00
2023-05-04T00:10:17.488Z,0.00
2023-05-04T00:11:17.452Z,0.00
2023-05-04T00:12:17.481Z,0.00
2023-05-04T00:13:17.479Z,0.00
2023-05-04T00:14:17.450Z,0.00
2023-05-04T00:15:17.410Z,0.00
2023-05-04T00:16:17.422Z,0.00
2023-05-04T00:17:17.400Z,0.00
2023-05-04T00:18:17.375Z,0.00
2023-05-04T00:19:17.377Z,0.00
2023-05-04T00:20:17.376Z,0.00
2023-05-04T00:21:17.350Z,0.00
2023-05-04T00:22:17.340Z,0.00
2023-05-04T00:23:17.319Z,0.00
2023-05-04T00:24:17.310Z,0.00
2023-05-04T00:25:17.325Z,0.00
2023-05-04T00:26:17.301Z,0.00
2023-05-04T00:27:17.273Z,0.00
2023-05-04T00:28:17.260Z,0.00
2023-05-04T00:29:17.260Z,0.00
2023-05-04T00:30:17.285Z,0.00
2023-05-04T00:31:17.309Z,0.00
2023-05-04T00:32:17.236Z,0.00
2023-05-04T00:33:17.211Z,0.00
2023-05-04T00:34:17.208Z,0.00
2023-05-04T00:35:17.183Z,0.00
2023-05-04T00:36:17.182Z,0.00
2023-05-04T00:37:17.169Z,0.00
2023-05-04T00:38:17.164Z,0.00
2023-05-04T00:39:17.138Z,0.00
2023-05-04T00:40:17.168Z,0.00
2023-05-04T00:41:17.128Z,0.00
2023-05-04T00:42:17.124Z,0.00
2023-05-04T00:43:17.096Z,0.00
2023-05-04T00:44:17.105Z,0.00
2023-05-04T00:45:17.088Z,0.00
2023-05-04T00:46:17.212Z,0.00
2023-05-04T00:47:17.204Z,0.00
2023-05-04T00:48:17.062Z,0.00
2023-05-04T00:49:17.038Z,0.00
2023-05-04T00:50:17.036Z,0.00
2023-05-04T00:51:17.020Z,0.00
2023-05-04T00:52:17.007Z,0.00
2023-05-04T00:53:16.984Z,0.00
2023-05-04T00:54:16.985Z,0.00
2023-05-04T00:55:16.994Z,0.00
2023-05-04T00:56:16.952Z,0.00
2023-05-04T00:57:16.984Z,0.00
2023-05-04T00:58:16.943Z,0.00
2023-05-04T00:59:16.923Z,0.00
2023-05-04T01:00:16.930Z,0.00
2023-05-04T01:01:16.958Z,0.00
2023-05-04T01:02:17.002Z,0.00
2023-05-04T01:03:16.967Z,0.00
2023-05-04T01:04:16.889Z,0.00
2023-05-04T01:05:16.865Z,0.00
2023-05-04T01:06:16.859Z,0.00
2023-05-04T01:07:16.855Z,0.00
2023-05-04T01:08:16.822Z,0.00
2023-05-04T01:09:16.807Z,0.00
2023-05-04T01:10:16.802Z,0.00
2023-05-04T01:11:16.814Z,0.00
2023-05-04T01:12:16.785Z,0.00
2023-05-04T01:13:16.908Z,0.00
2023-05-04T01:14:16.757Z,0.00
2023-05-04T01:15:16.742Z,0.00
2023-05-04T01:16:16.775Z,0.00
2023-05-04T01:17:16.748Z,0.00
2023-05-04T01:18:16.778Z,0.00
2023-05-04T01:19:16.718Z,0.00
2023-05-04T01:20:16.692Z,0.00
2023-05-04T01:21:16.675Z,0.00
2023-05-04T01:22:16.680Z,0.00
2023-05-04T01:23:16.661Z,0.00
2023-05-04T01:24:16.645Z,0.00
2023-05-04T01:25:16.649Z,0.00
2023-05-04T01:26:16.622Z,0.00
2023-05-04T01:27:16.628Z,0.00
2023-05-04T01:28:16.600Z,0.00
2023-05-04T01:29:16.589Z,0.00
2023-05-04T01:30:16.592Z,0.00
2023-05-04T01:31:16.630Z,0.00
2023-05-04T01:32:16.564Z,0.00
2023-05-04T01:33:16.574Z,0.00
2023-05-04T01:34:16.576Z,0.00
2023-05-04T01:35:16.519Z,0.00
2023-05-04T01:36:16.520Z,0.00
2023-05-04T01:37:16.498Z,0.00
2023-05-04T01:38:16.545Z,0.00
2023-05-04T01:39:16.475Z,0.00
2023-05-04T01:40:16.472Z,0.00
2023-05-04T01:41:16.453Z,0.00
2023-05-04T01:42:16.449Z,0.00
2023-05-04T01:43:16.429Z,0.00
2023-05-04T01:44:16.465Z,0.00
2023-05-04T01:45:16.410Z,0.00
2023-05-04T01:46:16.446Z,0.00
2023-05-04T01:47:16.385Z,0.00
2023-05-04T01:48:16.374Z,0.00
2023-05-04T01:49:16.393Z,0.00
2023-05-04T01:50:16.391Z,0.00
2023-05-04T01:51:16.339Z,0.00
2023-05-04T01:52:16.335Z,0.00
2023-05-04T01:53:16.317Z,0.00
2023-05-04T01:54:16.321Z,0.00
2023-05-04T01:55:16.311Z,0.00
2023-05-04T01:56:16.299Z,0.00
2023-05-04T01:57:16.293Z,0.00
2023-05-04T01:58:16.264Z,0.00
2023-05-04T01:59:16.257Z,0.00
2023-05-04T02:00:16.265Z,0.00
2023-05-04T02:01:16.287Z,0.00
2023-05-04T02:02:16.216Z,0.00
2023-05-04T02:03:16.264Z,0.00
2023-05-04T02:04:16.196Z,0.00
2023-05-04T02:05:16.188Z,0.00
2023-05-04T02:06:16.262Z,0.00
2023-05-04T02:07:16.178Z,0.00
2023-05-04T02:08:16.148Z,0.00
2023-05-04T02:09:16.148Z,0.00
2023-05-04T02:10:16.145Z,0.00
2023-05-04T02:11:16.122Z,0.00
2023-05-04T02:12:16.116Z,0.00
2023-05-04T02:13:16.216Z,0.00
2023-05-04T02:14:16.111Z,0.00
2023-05-04T02:15:16.083Z,0.00
2023-05-04T02:16:16.106Z,0.00
2023-05-04T02:17:16.075Z,0.00
2023-05-04T02:18:16.052Z,0.00
2023-05-04T02:19:16.031Z,0.00
2023-05-04T02:20:16.019Z,0.00
2023-05-04T02:21:16.013Z,0.00
2023-05-04T02:22:16.041Z,0.00
2023-05-04T02:23:15.989Z,0.00
2023-05-04T02:24:15.977Z,0.00
2023-05-04T02:25:15.969Z,0.00
2023-05-04T02:26:15.970Z,0.00
2023-05-04T02:27:15.961Z,0.00
2023-05-04T02:28:15.932Z,0.00
2023-05-04T02:29:15.924Z,0.00
2023-05-04T02:30:15.931Z,0.00
2023-05-04T02:31:15.928Z,0.00
2023-05-04T02:32:15.901Z,0.00
2023-05-04T02:33:15.903Z,0.00
2023-05-04T02:34:15.864Z,0.00
2023-05-04T02:35:15.856Z,0.00
2023-05-04T02:36:15.859Z,0.00
2023-05-04T02:37:15.848Z,0.00
2023-05-04T02:38:15.848Z,0.00
2023-05-04T02:39:15.816Z,0.00
2023-05-04T02:40:15.800Z,0.00
2023-05-04T02:41:15.790Z,0.00
2023-05-04T02:42:15.789Z,0.00
2023-05-04T02:43:22.851Z,0.00
2023-05-04T02:44:15.774Z,0.00
2023-05-04T02:45:15.762Z,0.00
2023-05-04T02:46:15.842Z,0.00
2023-05-04T02:47:15.791Z,0.00
2023-05-04T02:48:15.724Z,0.00
2023-05-04T02:49:15.711Z,0.00
2023-05-04T02:50:15.859Z,0.00
2023-05-04T02:51:15.685Z,0.00
2023-05-04T02:52:15.667Z,0.00
2023-05-04T02:53:15.678Z,0.00
2023-05-04T02:54:15.801Z,0.00
2023-05-04T02:55:15.646Z,0.00
2023-05-04T02:56:15.624Z,0.00
2023-05-04T02:57:15.621Z,0.00
2023-05-04T02:58:15.612Z,0.00
2023-05-04T02:59:15.602Z,0.00
2023-05-04T03:00:15.602Z,0.00
2023-05-04T03:01:15.599Z,0.00
2023-05-04T03:02:15.555Z,0.00
2023-05-04T03:03:15.580Z,0.00
2023-05-04T03:04:15.623Z,0.00
2023-05-04T03:05:15.534Z,0.00
2023-05-04T03:06:15.529Z,0.00
2023-05-04T03:07:15.541Z,0.00
2023-05-04T03:08:15.506Z,0.00
2023-05-04T03:09:15.497Z,0.00
2023-05-04T03:10:15.518Z,0.00
2023-05-04T03:11:15.468Z,0.00
2023-05-04T03:12:15.454Z,0.00
2023-05-04T03:13:15.576Z,0.00
2023-05-04T03:14:15.445Z,0.00
2023-05-04T03:15:15.434Z,0.00
2023-05-04T03:16:15.453Z,0.00
2023-05-04T03:17:15.429Z,0.00
2023-05-04T03:18:15.407Z,0.00
2023-05-04T03:19:15.377Z,0.00
2023-05-04T03:20:15.383Z,0.00
2023-05-04T03:21:15.363Z,0.00
2023-05-04T03:22:15.361Z,0.00
2023-05-04T03:23:15.340Z,0.00
2023-05-04T03:24:15.339Z,0.00
2023-05-04T03:25:15.320Z,0.00
2023-05-04T03:26:15.332Z,0.00
2023-05-04T03:27:15.294Z,0.00
2023-05-04T03:28:15.286Z,0.00
2023-05-04T03:29:15.276Z,4.00
2023-05-04T03:30:15.265Z,0.00
2023-05-04T03:31:15.298Z,0.00
2023-05-04T03:32:15.276Z,0.00
2023-05-04T03:33:15.250Z,4.00
2023-05-04T03:34:15.233Z,4.00
2023-05-04T03:35:15.376Z,0.00
2023-05-04T03:36:15.330Z,4.00
2023-05-04T03:37:15.198Z,4.00
2023-05-04T03:38:15.172Z,0.00
2023-05-04T03:39:15.179Z,4.00
2023-05-04T03:40:15.142Z,4.00
2023-05-04T03:41:15.151Z,4.00
2023-05-04T03:42:15.149Z,4.00
2023-05-04T03:43:15.122Z,4.00
2023-05-04T03:44:15.099Z,8.00
2023-05-04T03:45:15.086Z,8.00
2023-05-04T03:46:15.115Z,12.00
2023-05-04T03:47:15.107Z,8.00
2023-05-04T03:48:15.068Z,12.00
2023-05-04T03:49:15.043Z,8.00
2023-05-04T03:50:15.029Z,20.00
2023-05-04T03:51:15.032Z,12.00
2023-05-04T03:52:15.043Z,24.00
2023-05-04T03:53:15.010Z,20.00
2023-05-04T03:54:14.999Z,24.00
2023-05-04T03:55:15.002Z,20.00
2023-05-04T03:56:14.970Z,28.00
2023-05-04T03:57:14.955Z,24.00
2023-05-04T03:58:14.984Z,32.00
2023-05-04T03:59:14.946Z,32.00
2023-05-04T04:00:14.917Z,36.00
2023-05-04T04:01:14.918Z,32.00
2023-05-04T04:02:14.942Z,40.00
2023-05-04T04:03:15.141Z,40.00
2023-05-04T04:04:14.935Z,44.00
2023-05-04T04:05:14.871Z,48.00
2023-05-04T04:06:14.858Z,52.00
2023-05-04T04:07:14.843Z,56.00
2023-05-04T04:08:14.841Z,56.00
2023-05-04T04:09:14.835Z,68.00
2023-05-04T04:10:14.814Z,64.00
2023-05-04T04:11:14.799Z,80.00
2023-05-04T04:12:14.782Z,72.00
2023-05-04T04:13:14.926Z,96.00
2023-05-04T04:14:14.787Z,80.00
2023-05-04T04:15:14.782Z,108.00
2023-05-04T04:16:14.795Z,84.00
2023-05-04T04:17:14.736Z,116.00
2023-05-04T04:18:14.721Z,96.00
2023-05-04T04:19:14.745Z,136.00
2023-05-04T04:20:14.698Z,108.00
2023-05-04T04:21:14.706Z,148.00
2023-05-04T04:22:14.675Z,124.00
2023-05-04T04:23:14.666Z,164.00
2023-05-04T04:24:14.654Z,140.00
2023-05-04T04:25:14.672Z,176.00
2023-05-04T04:26:14.661Z,160.00
2023-05-04T04:27:14.633Z,192.00
2023-05-04T04:28:14.609Z,180.00
2023-05-04T04:29:14.609Z,208.00
2023-05-04T04:30:14.641Z,200.00
2023-05-04T04:31:14.624Z,220.00
2023-05-04T04:32:14.567Z,220.00
2023-05-04T04:33:14.557Z,232.00
2023-05-04T04:34:14.549Z,252.00
2023-05-04T04:35:14.535Z,244.00
2023-05-04T04:36:14.532Z,260.00
2023-05-04T04:37:14.510Z,264.00
2023-05-04T04:38:14.500Z,284.00
2023-05-04T04:39:14.523Z,280.00
2023-05-04T04:40:14.487Z,296.00
2023-05-04T04:41:14.502Z,288.00
2023-05-04T04:42:14.466Z,320.00
2023-05-04T04:43:14.451Z,308.00
2023-05-04T04:44:14.451Z,320.00
2023-05-04T04:45:14.428Z,320.00
2023-05-04T04:46:14.577Z,360.00
2023-05-04T04:47:14.398Z,332.00
2023-05-04T04:48:14.385Z,352.00
2023-05-04T04:49:14.386Z,336.00
2023-05-04T04:50:14.365Z,392.00
2023-05-04T04:51:14.383Z,368.00
2023-05-04T04:52:15.571Z,404.00
2023-05-04T04:53:14.354Z,376.00
2023-05-04T04:54:14.336Z,432.00
2023-05-04T04:55:14.312Z,420.00
2023-05-04T04:56:14.313Z,448.00
2023-05-04T04:57:14.301Z,416.00
2023-05-04T04:58:14.274Z,460.00
2023-05-04T04:59:14.277Z,456.00
2023-05-04T05:00:14.256Z,508.00
2023-05-04T05:01:14.330Z,472.00
2023-05-04T05:02:14.270Z,468.00
2023-05-04T05:03:14.274Z,504.00
2023-05-04T05:04:14.281Z,556.00
2023-05-04T05:05:14.221Z,544.00
2023-05-04T05:06:14.197Z,524.00
2023-05-04T05:07:14.180Z,556.00
2023-05-04T05:08:14.165Z,516.00
2023-05-04T05:09:14.165Z,584.00
2023-05-04T05:10:14.151Z,568.00
2023-05-04T05:11:14.135Z,616.00
2023-05-04T05:12:14.149Z,608.00
2023-05-04T05:13:14.262Z,640.00
2023-05-04T05:14:14.115Z,596.00
2023-05-04T05:15:14.136Z,668.00
2023-05-04T05:16:14.127Z,608.00
2023-05-04T05:17:14.071Z,712.00
2023-05-04T05:18:14.084Z,692.00
2023-05-04T05:19:14.052Z,768.00
2023-05-04T05:20:14.092Z,720.00
2023-05-04T05:21:14.045Z,868.00
2023-05-04T05:22:14.027Z,896.00
2023-05-04T05:23:14.014Z,1032.00
2023-05-04T05:24:13.993Z,1092.00
2023-05-04T05:25:13.998Z,1256.00
2023-05-04T05:26:13.970Z,1372.00
2023-05-04T05:27:13.967Z,1604.00
2023-05-04T05:28:13.957Z,1924.00
2023-05-04T05:29:13.953Z,2564.00
2023-05-04T05:30:13.977Z,3068.00
2023-05-04T05:31:13.931Z,4360.00
2023-05-04T05:32:13.905Z,6216.00
2023-05-04T05:33:13.989Z,5904.00
2023-05-04T05:34:13.906Z,4928.00
2023-05-04T05:35:13.890Z,5616.00
2023-05-04T05:36:13.881Z,6928.00
2023-05-04T05:37:13.855Z,6016.00
2023-05-04T05:38:13.860Z,4748.00
2023-05-04T05:39:13.828Z,5212.00
2023-05-04T05:40:13.849Z,6276.00
2023-05-04T05:41:13.809Z,8436.00
2023-05-04T05:42:13.793Z,8652.00
2023-05-04T05:43:13.780Z,7252.00
2023-05-04T05:44:13.774Z,7220.00
2023-05-04T05:45:13.761Z,6860.00
2023-05-04T05:46:13.818Z,6336.00
2023-05-04T05:47:13.773Z,8368.00
2023-05-04T05:48:13.727Z,8248.00
2023-05-04T05:49:13.716Z,4952.00
2023-05-04T05:50:13.740Z,4932.00
2023-05-04T05:51:13.710Z,5640.00
2023-05-04T05:52:13.716Z,7556.00
2023-05-04T05:53:13.672Z,6928.00
2023-05-04T05:54:13.656Z,7556.00
2023-05-04T05:55:13.652Z,8612.00
2023-05-04T05:56:13.652Z,8344.00
2023-05-04T05:57:13.643Z,9628.00
2023-05-04T05:58:13.626Z,8772.00
2023-05-04T05:59:13.608Z,9432.00
2023-05-04T06:00:13.592Z,9348.00
2023-05-04T06:01:13.585Z,9024.00
2023-05-04T06:02:13.605Z,7884.00
2023-05-04T06:03:13.653Z,7948.00
2023-05-04T06:04:13.709Z,8080.00
2023-05-04T06:05:13.548Z,7420.00
2023-05-04T06:06:13.553Z,8148.00
2023-05-04T06:07:13.553Z,8856.00
2023-05-04T06:08:13.508Z,8420.00
2023-05-04T06:09:13.496Z,7720.00
2023-05-04T06:10:13.485Z,8096.00
2023-05-04T06:11:13.496Z,8372.00
2023-05-04T06:12:13.562Z,8544.00
2023-05-04T06:13:13.533Z,8320.00
2023-05-04T06:14:13.440Z,9276.00
2023-05-04T06:15:13.422Z,9192.00
2023-05-04T06:16:13.510Z,9548.00
2023-05-04T06:17:13.421Z,10036.00
2023-05-04T06:18:13.420Z,10420.00
2023-05-04T06:19:13.377Z,8928.00
2023-05-04T06:20:13.373Z,8972.00
2023-05-04T06:21:13.377Z,9960.00
2023-05-04T06:22:13.505Z,11464.00
2023-05-04T06:23:13.358Z,10276.00
2023-05-04T06:24:13.335Z,10516.00
2023-05-04T06:25:13.325Z,9548.00
2023-05-04T06:26:13.328Z,9260.00
2023-05-04T06:27:13.303Z,9704.00
2023-05-04T06:28:13.280Z,9568.00
2023-05-04T06:29:13.300Z,9744.00
2023-05-04T06:30:13.253Z,8624.00
2023-05-04T06:31:13.297Z,8592.00
2023-05-04T06:32:13.266Z,9512.00
2023-05-04T06:33:13.250Z,9136.00
2023-05-04T06:34:13.227Z,8488.00
2023-05-04T06:35:13.207Z,8748.00
2023-05-04T06:36:13.211Z,10376.00
2023-05-04T06:37:14.857Z,12820.00
2023-05-04T06:38:13.220Z,12436.00
2023-05-04T06:39:13.178Z,13232.00
2023-05-04T06:40:13.521Z,11100.00
2023-05-04T06:41:13.135Z,8904.00
2023-05-04T06:42:13.128Z,7620.00
2023-05-04T06:43:13.109Z,7396.00
2023-05-04T06:44:13.122Z,7348.00
2023-05-04T06:45:13.086Z,7260.00
2023-05-04T06:46:13.091Z,7280.00
2023-05-04T06:47:13.073Z,7168.00
2023-05-04T06:48:13.062Z,6572.00
2023-05-04T06:49:13.051Z,6020.00
2023-05-04T06:50:13.048Z,6572.00
2023-05-04T06:51:13.041Z,6088.00
2023-05-04T06:52:13.008Z,6096.00
2023-05-04T06:53:13.007Z,5992.00
2023-05-04T06:54:13.033Z,5752.00
2023-05-04T06:55:12.981Z,5164.00
2023-05-04T06:56:12.968Z,4744.00
2023-05-04T06:57:12.957Z,5184.00
2023-05-04T06:58:12.950Z,5096.00
2023-05-04T06:59:12.947Z,4836.00
2023-05-04T07:00:12.921Z,4772.00
2023-05-04T07:01:12.948Z,4272.00
2023-05-04T07:02:12.894Z,3916.00
2023-05-04T07:03:12.921Z,3692.00
2023-05-04T07:04:12.906Z,3556.00
2023-05-04T07:05:12.864Z,3600.00
2023-05-04T07:06:12.858Z,3784.00
2023-05-04T07:07:12.845Z,3920.00
2023-05-04T07:08:12.831Z,3868.00
2023-05-04T07:09:12.843Z,3876.00
2023-05-04T07:10:12.875Z,3568.00
2023-05-04T07:11:12.793Z,3732.00
2023-05-04T07:12:12.781Z,3672.00
2023-05-04T07:13:12.803Z,3628.00
2023-05-04T07:14:12.762Z,3540.00
2023-05-04T07:15:12.757Z,3432.00
2023-05-04T07:16:12.768Z,3316.00
2023-05-04T07:17:12.723Z,3296.00
2023-05-04T07:18:12.778Z,3260.00
2023-05-04T07:19:12.703Z,3296.00
2023-05-04T07:20:12.735Z,3252.00
2023-05-04T07:21:26.778Z,3192.00
2023-05-04T07:22:13.684Z,3132.00
2023-05-04T07:23:12.662Z,3120.00
2023-05-04T07:24:12.647Z,3068.00
2023-05-04T07:25:12.651Z,3116.00
2023-05-04T07:26:12.673Z,3128.00
2023-05-04T07:27:12.637Z,3036.00
2023-05-04T07:28:12.616Z,2992.00
2023-05-04T07:29:12.589Z,2932.00
2023-05-04T07:30:12.599Z,2856.00
2023-05-04T07:31:12.568Z,2900.00
2023-05-04T07:32:12.579Z,2964.00
2023-05-04T07:33:12.604Z,3096.00
2023-05-04T07:34:12.547Z,2984.00
2023-05-04T07:35:12.825Z,2976.00
2023-05-04T07:36:12.552Z,3000.00
2023-05-04T07:37:12.519Z,2984.00
2023-05-04T07:38:12.492Z,3112.00
2023-05-04T07:39:12.483Z,3084.00
2023-05-04T07:40:12.474Z,3096.00
2023-05-04T07:41:12.483Z,3040.00
2023-05-04T07:42:12.485Z,3048.00
2023-05-04T07:43:12.440Z,2984.00
2023-05-04T07:44:12.429Z,2924.00
2023-05-04T07:45:12.408Z,2896.00
2023-05-04T07:46:12.475Z,3024.00
2023-05-04T07:47:12.398Z,3052.00
2023-05-04T07:48:12.599Z,2904.00
2023-05-04T07:49:12.381Z,2952.00
2023-05-04T07:50:12.364Z,2960.00
2023-05-04T07:51:12.349Z,3048.00
2023-05-04T07:52:12.339Z,2936.00
2023-05-04T07:53:12.329Z,3168.00
2023-05-04T07:54:12.339Z,3196.00
2023-05-04T07:55:12.307Z,3192.00
2023-05-04T07:56:12.310Z,3196.00
2023-05-04T07:57:12.281Z,3148.00
2023-05-04T07:58:12.455Z,3128.00
2023-05-04T07:59:12.265Z,3128.00
2023-05-04T08:00:12.255Z,3180.00
2023-05-04T08:01:12.247Z,3216.00
2023-05-04T08:02:12.293Z,3252.00
2023-05-04T08:03:12.254Z,3272.00
2023-05-04T08:04:12.202Z,3260.00
2023-05-04T08:05:12.198Z,3264.00
2023-05-04T08:06:12.191Z,3276.00
2023-05-04T08:07:12.182Z,3288.00
2023-05-04T08:08:12.193Z,3296.00
2023-05-04T08:09:12.148Z,3300.00
2023-05-04T08:10:12.144Z,3508.00
2023-05-04T08:11:19.111Z,3460.00
2023-05-04T08:12:13.118Z,3384.00
2023-05-04T08:13:12.175Z,3360.00
2023-05-04T08:14:12.581Z,3456.00
2023-05-04T08:15:12.088Z,3420.00
2023-05-04T08:16:12.074Z,3492.00
2023-05-04T08:17:12.058Z,3556.00
2023-05-04T08:18:12.063Z,3444.00
2023-05-04T08:19:12.056Z,3488.00
2023-05-04T08:20:12.055Z,3508.00
2023-05-04T08:21:12.013Z,3500.00
2023-05-04T08:22:12.020Z,3500.00
2023-05-04T08:23:12.005Z,3460.00
2023-05-04T08:24:11.990Z,3236.00
2023-05-04T08:25:11.988Z,3264.00
2023-05-04T08:26:11.968Z,3472.00
2023-05-04T08:27:11.957Z,3508.00
2023-05-04T08:28:11.959Z,3500.00
2023-05-04T08:29:11.948Z,3612.00
2023-05-04T08:30:11.957Z,3532.00
2023-05-04T08:31:11.910Z,3540.00
2023-05-04T08:32:11.894Z,3496.00
2023-05-04T08:33:11.892Z,3480.00
2023-05-04T08:34:11.883Z,3484.00
2023-05-04T08:35:11.889Z,3304.00
2023-05-04T08:36:11.852Z,3372.00
2023-05-04T08:37:11.839Z,3392.00
2023-05-04T08:38:11.843Z,3404.00
2023-05-04T08:39:11.824Z,3412.00
2023-05-04T08:40:11.827Z,3500.00
2023-05-04T08:41:11.797Z,3520.00
2023-05-04T08:42:11.791Z,3532.00
2023-05-04T08:43:11.784Z,3788.00
2023-05-04T08:44:11.787Z,3728.00
2023-05-04T08:45:11.746Z,3588.00
2023-05-04T08:46:11.927Z,3692.00
2023-05-04T08:47:11.758Z,3760.00
2023-05-04T08:48:11.718Z,3588.00
2023-05-04T08:49:11.741Z,3744.00
2023-05-04T08:50:11.705Z,3700.00
2023-05-04T08:51:11.702Z,3440.00
2023-05-04T08:52:11.677Z,3448.00
2023-05-04T08:53:11.665Z,3388.00
2023-05-04T08:54:11.657Z,3392.00
2023-05-04T08:55:11.659Z,3388.00
2023-05-04T08:56:11.650Z,3416.00
2023-05-04T08:57:11.622Z,3488.00
2023-05-04T08:58:11.636Z,3424.00
2023-05-04T08:59:11.601Z,3668.00
2023-05-04T09:00:11.586Z,3456.00
2023-05-04T09:01:11.672Z,3692.00
2023-05-04T09:02:11.697Z,3884.00
2023-05-04T09:03:11.618Z,3968.00
2023-05-04T09:04:11.537Z,3844.00
2023-05-04T09:05:11.556Z,3976.00
2023-05-04T09:06:11.526Z,3988.00
2023-05-04T09:07:11.504Z,4072.00
2023-05-04T09:08:11.539Z,4112.00
2023-05-04T09:09:11.480Z,4064.00
2023-05-04T09:10:11.468Z,3944.00
2023-05-04T09:11:11.467Z,3864.00
2023-05-04T09:12:11.459Z,3964.00
2023-05-04T09:13:11.490Z,3816.00
2023-05-04T09:14:11.519Z,3944.00
2023-05-04T09:15:11.412Z,4012.00
2023-05-04T09:16:13.341Z,3756.00
2023-05-04T09:17:11.418Z,3776.00
2023-05-04T09:18:11.485Z,3712.00
2023-05-04T09:19:11.368Z,3708.00
2023-05-04T09:20:11.375Z,3812.00
2023-05-04T09:21:11.370Z,3964.00
2023-05-04T09:22:11.337Z,3948.00
2023-05-04T09:23:11.352Z,3976.00
2023-05-04T09:24:11.316Z,3768.00
2023-05-04T09:25:11.318Z,3932.00
2023-05-04T09:26:11.295Z,4220.00
2023-05-04T09:27:11.290Z,3908.00
2023-05-04T09:28:11.279Z,4176.00
2023-05-04T09:29:11.256Z,3948.00
2023-05-04T09:30:11.266Z,3968.00
2023-05-04T09:31:11.273Z,3904.00
2023-05-04T09:32:11.231Z,4072.00
2023-05-04T09:33:11.226Z,3632.00
2023-05-04T09:34:11.228Z,3732.00
2023-05-04T09:35:14.194Z,3884.00
2023-05-04T09:36:12.192Z,3932.00
2023-05-04T09:37:11.192Z,3876.00
2023-05-04T09:38:11.163Z,3660.00
2023-05-04T09:39:11.397Z,3912.00
2023-05-04T09:40:11.144Z,3476.00
2023-05-04T09:41:11.143Z,3620.00
2023-05-04T09:42:11.134Z,3644.00
2023-05-04T09:43:11.095Z,3688.00
2023-05-04T09:44:11.094Z,3912.00
2023-05-04T09:45:11.075Z,4024.00
2023-05-04T09:46:11.107Z,4360.00
2023-05-04T09:47:11.075Z,4356.00
2023-05-04T09:48:11.058Z,4648.00
2023-05-04T09:49:11.032Z,4292.00
2023-05-04T09:50:11.191Z,4172.00
2023-05-04T09:51:11.009Z,4104.00
2023-05-04T09:52:11.005Z,3792.00
2023-05-04T09:53:11.021Z,3716.00
2023-05-04T09:54:11.017Z,3888.00
2023-05-04T09:55:10.967Z,4012.00
2023-05-04T09:56:10.978Z,4208.00
2023-05-04T09:57:10.971Z,3984.00
2023-05-04T09:58:10.938Z,4036.00
2023-05-04T09:59:10.946Z,4064.00
2023-05-04T10:00:10.933Z,3896.00
2023-05-04T10:01:10.942Z,3964.00
2023-05-04T10:02:21.232Z,4168.00
2023-05-04T10:03:11.937Z,3516.00
2023-05-04T10:04:10.887Z,4012.00
2023-05-04T10:05:10.871Z,3744.00
2023-05-04T10:06:10.873Z,4012.00
2023-05-04T10:07:10.834Z,4032.00
2023-05-04T10:08:10.860Z,3940.00
2023-05-04T10:09:10.821Z,4024.00
2023-05-04T10:10:10.803Z,4152.00
2023-05-04T10:11:10.788Z,4084.00
2023-05-04T10:12:10.800Z,3948.00
2023-05-04T10:13:10.841Z,3748.00
2023-05-04T10:14:10.760Z,3796.00
2023-05-04T10:15:10.751Z,3996.00
2023-05-04T10:16:10.781Z,3984.00
2023-05-04T10:17:13.205Z,4112.00
2023-05-04T10:18:10.721Z,3656.00
2023-05-04T10:19:10.708Z,3772.00
2023-05-04T10:20:10.692Z,3744.00
2023-05-04T10:21:10.733Z,3716.00
2023-05-04T10:22:10.700Z,3776.00
2023-05-04T10:23:10.657Z,3608.00
2023-05-04T10:24:10.681Z,3228.00
2023-05-04T10:25:10.650Z,3412.00
2023-05-04T10:26:10.641Z,2904.00
2023-05-04T10:27:10.639Z,3236.00
2023-05-04T10:28:10.600Z,2660.00
2023-05-04T10:29:10.599Z,2596.00
2023-05-04T10:30:10.592Z,2896.00
2023-05-04T10:31:10.615Z,3088.00
2023-05-04T10:32:10.555Z,3360.00
2023-05-04T10:33:10.624Z,3604.00
2023-05-04T10:34:10.546Z,3672.00
2023-05-04T10:35:10.571Z,3672.00
2023-05-04T10:36:10.524Z,3884.00
2023-05-04T10:37:10.508Z,3584.00
2023-05-04T10:38:10.518Z,3444.00
2023-05-04T10:39:10.498Z,3548.00
2023-05-04T10:40:10.500Z,3536.00
2023-05-04T10:41:10.460Z,3484.00
2023-05-04T10:42:10.465Z,3396.00
2023-05-04T10:43:10.451Z,3396.00
2023-05-04T10:44:10.449Z,3832.00
2023-05-04T10:45:10.434Z,3772.00
2023-05-04T10:46:10.478Z,3744.00
2023-05-04T10:47:10.399Z,4140.00
2023-05-04T10:48:10.441Z,3436.00
2023-05-04T10:49:10.379Z,3552.00
2023-05-04T10:50:10.366Z,3592.00
2023-05-04T10:51:10.364Z,4060.00
2023-05-04T10:52:10.383Z,4256.00
2023-05-04T10:53:10.329Z,3912.00
2023-05-04T10:54:10.355Z,3996.00
2023-05-04T10:55:10.315Z,3796.00
2023-05-04T10:56:10.295Z,3688.00
2023-05-04T10:57:10.310Z,3544.00
2023-05-04T10:58:10.269Z,3828.00
2023-05-04T10:59:10.324Z,3796.00
2023-05-04T11:00:10.262Z,3784.00
2023-05-04T11:01:10.289Z,3760.00
2023-05-04T11:02:10.258Z,3448.00
2023-05-04T11:03:10.329Z,3840.00
2023-05-04T11:04:10.219Z,3688.00
2023-05-04T11:05:10.219Z,3740.00
2023-05-04T11:06:10.183Z,3884.00
2023-05-04T11:07:10.189Z,3856.00
2023-05-04T11:08:10.168Z,3920.00
2023-05-04T11:09:10.149Z,3668.00
2023-05-04T11:10:10.273Z,3424.00
2023-05-04T11:11:10.133Z,3696.00
2023-05-04T11:12:10.126Z,3616.00
2023-05-04T11:13:10.152Z,3328.00
2023-05-04T11:14:10.102Z,3560.00
2023-05-04T11:15:10.093Z,3360.00
2023-05-04T11:16:10.102Z,3436.00
2023-05-04T11:17:23.885Z,3188.00
2023-05-04T11:18:11.112Z,3348.00
2023-05-04T11:19:10.056Z,3540.00
2023-05-04T11:20:10.049Z,3620.00
2023-05-04T11:21:10.017Z,3712.00
2023-05-04T11:22:10.010Z,4068.00
2023-05-04T11:23:09.996Z,4000.00
2023-05-04T11:24:10.004Z,3816.00
2023-05-04T11:25:09.974Z,3684.00
2023-05-04T11:26:09.984Z,3940.00
2023-05-04T11:27:09.950Z,3904.00
2023-05-04T11:28:09.969Z,3808.00
2023-05-04T11:29:09.943Z,3776.00
2023-05-04T11:30:09.918Z,3972.00
2023-05-04T11:31:09.944Z,3464.00
2023-05-04T11:32:09.902Z,3636.00
2023-05-04T11:33:09.921Z,3724.00
2023-05-04T11:34:09.873Z,3584.00
2023-05-04T11:35:09.880Z,3732.00
2023-05-04T11:36:09.849Z,3720.00
2023-05-04T11:37:09.839Z,3560.00
2023-05-04T11:38:09.850Z,3512.00
2023-05-04T11:39:09.819Z,3672.00
2023-05-04T11:40:09.805Z,3580.00
2023-05-04T11:41:09.809Z,3632.00
2023-05-04T11:42:09.811Z,3672.00
2023-05-04T11:43:09.818Z,3336.00
2023-05-04T11:44:09.778Z,3720.00
2023-05-04T11:45:09.766Z,3552.00
2023-05-04T11:46:09.750Z,3436.00
2023-05-04T11:47:09.730Z,3488.00
2023-05-04T11:48:09.741Z,3532.00
2023-05-04T11:49:09.723Z,3644.00
2023-05-04T11:50:09.706Z,3392.00
2023-05-04T11:51:09.682Z,3600.00
2023-05-04T11:52:09.685Z,3488.00
2023-05-04T11:53:09.848Z,3476.00
2023-05-04T11:54:09.662Z,3244.00
2023-05-04T11:55:09.741Z,3156.00
2023-05-04T11:56:09.714Z,3356.00
2023-05-04T11:57:09.626Z,3420.00
2023-05-04T11:58:09.630Z,3384.00
2023-05-04T11:59:09.610Z,3352.00
2023-05-04T12:00:09.605Z,3492.00
2023-05-04T12:01:09.579Z,3440.00
2023-05-04T12:02:09.560Z,3460.00
2023-05-04T12:03:09.612Z,3368.00
2023-05-04T12:04:09.637Z,3432.00
2023-05-04T12:05:09.764Z,3432.00
2023-05-04T12:06:09.516Z,3564.00
2023-05-04T12:07:09.510Z,3404.00
2023-05-04T12:08:09.496Z,3308.00
2023-05-04T12:09:09.507Z,3292.00
2023-05-04T12:10:09.514Z,3344.00
2023-05-04T12:11:09.478Z,3308.00
2023-05-04T12:12:09.449Z,3616.00
2023-05-04T12:13:09.485Z,3172.00
2023-05-04T12:14:09.478Z,3272.00
2023-05-04T12:15:09.419Z,3180.00
2023-05-04T12:16:09.441Z,3292.00
2023-05-04T12:17:09.394Z,3316.00
2023-05-04T12:18:09.440Z,3324.00
2023-05-04T12:19:09.443Z,3040.00
2023-05-04T12:20:09.363Z,3024.00
2023-05-04T12:21:09.361Z,3296.00
2023-05-04T12:22:09.333Z,3280.00
2023-05-04T12:23:09.327Z,3276.00
2023-05-04T12:24:09.342Z,3580.00
2023-05-04T12:25:09.440Z,3220.00
2023-05-04T12:26:09.295Z,3556.00
2023-05-04T12:27:09.288Z,3268.00
2023-05-04T12:28:09.274Z,3224.00
2023-05-04T12:29:09.261Z,3160.00